sensor_id;sensor_type;location;lat;lon;timestamp;P1;durP1;ratioP1;P2;durP2;ratioP2
34876;SDS011;21086;44.780;17.194;2024-03-06T00:00:12;42.00;;;18.77;;
34876;SDS011;21086;44.780;17.194;2024-03-06T00:02:40;38.05;;;18.67;;
34876;SDS011;21086;44.780;17.194;2024-03-06T00:05:07;37.78;;;18.02;;
34876;SDS011;21086;44.780;17.194;2024-03-06T00:07:35;38.83;;;18.48;;
34876;SDS011;21086;44.780;17.194;2024-03-06T00:10:02;34.33;;;18.25;;
34876;SDS011;21086;44.780;17.194;2024-03-06T00:12:31;41.60;;;19.80;;
34876;SDS011;21086;44.780;17.194;2024-03-06T00:14:59;43.35;;;20.13;;
34876;SDS011;21086;44.780;17.194;2024-03-06T00:17:26;44.80;;;21.70;;
34876;SDS011;21086;44.780;17.194;2024-03-06T00:19:53;43.70;;;22.85;;
34876;SDS011;21086;44.780;17.194;2024-03-06T00:22:20;44.55;;;23.83;;
34876;SDS011;21086;44.780;17.194;2024-03-06T00:24:49;43.60;;;22.90;;
34876;SDS011;21086;44.780;17.194;2024-03-06T00:27:17;38.83;;;21.15;;
34876;SDS011;21086;44.780;17.194;2024-03-06T00:29:45;42.22;;;21.75;;
34876;SDS011;21086;44.780;17.194;2024-03-06T00:32:12;44.08;;;22.65;;
34876;SDS011;21086;44.780;17.194;2024-03-06T00:34:39;44.90;;;23.63;;
34876;SDS011;21086;44.780;17.194;2024-03-06T00:37:06;40.13;;;20.55;;
34876;SDS011;21086;44.780;17.194;2024-03-06T00:39:33;42.05;;;20.45;;
34876;SDS011;21086;44.780;17.194;2024-03-06T00:42:00;41.03;;;19.67;;
34876;SDS011;21086;44.780;17.194;2024-03-06T00:44:27;44.38;;;19.20;;
34876;SDS011;21086;44.780;17.194;2024-03-06T00:46:54;33.75;;;19.85;;
34876;SDS011;21086;44.780;17.194;2024-03-06T00:49:21;36.60;;;18.77;;
34876;SDS011;21086;44.780;17.194;2024-03-06T00:51:48;38.97;;;18.70;;
34876;SDS011;21086;44.780;17.194;2024-03-06T00:54:15;32.95;;;17.88;;
34876;SDS011;21086;44.780;17.194;2024-03-06T00:56:43;29.73;;;17.63;;
34876;SDS011;21086;44.780;17.194;2024-03-06T00:59:10;34.42;;;16.35;;
34876;SDS011;21086;44.780;17.194;2024-03-06T01:01:38;35.17;;;17.33;;
34876;SDS011;21086;44.780;17.194;2024-03-06T01:04:05;33.42;;;17.35;;
34876;SDS011;21086;44.780;17.194;2024-03-06T01:06:32;32.88;;;16.70;;
34876;SDS011;21086;44.780;17.194;2024-03-06T01:08:59;32.15;;;17.48;;
34876;SDS011;21086;44.780;17.194;2024-03-06T01:11:26;30.50;;;17.02;;
34876;SDS011;21086;44.780;17.194;2024-03-06T01:13:53;33.47;;;17.15;;
34876;SDS011;21086;44.780;17.194;2024-03-06T01:16:21;33.33;;;17.35;;
34876;SDS011;21086;44.780;17.194;2024-03-06T01:18:48;33.03;;;17.60;;
34876;SDS011;21086;44.780;17.194;2024-03-06T01:21:15;35.72;;;17.45;;
34876;SDS011;21086;44.780;17.194;2024-03-06T01:23:42;37.75;;;18.23;;
34876;SDS011;21086;44.780;17.194;2024-03-06T01:26:10;31.50;;;17.00;;
34876;SDS011;21086;44.780;17.194;2024-03-06T01:28:38;30.80;;;18.05;;
34876;SDS011;21086;44.780;17.194;2024-03-06T01:31:06;32.63;;;16.90;;
34876;SDS011;21086;44.780;17.194;2024-03-06T01:33:33;33.60;;;16.67;;
34876;SDS011;21086;44.780;17.194;2024-03-06T01:36:00;31.08;;;17.30;;
34876;SDS011;21086;44.780;17.194;2024-03-06T01:38:28;32.28;;;17.13;;
34876;SDS011;21086;44.780;17.194;2024-03-06T01:40:55;33.90;;;17.95;;
34876;SDS011;21086;44.780;17.194;2024-03-06T01:43:23;38.95;;;17.17;;
34876;SDS011;21086;44.780;17.194;2024-03-06T01:45:52;33.13;;;17.63;;
34876;SDS011;21086;44.780;17.194;2024-03-06T01:48:21;33.28;;;17.70;;
34876;SDS011;21086;44.780;17.194;2024-03-06T01:50:53;31.65;;;17.85;;
34876;SDS011;21086;44.780;17.194;2024-03-06T01:53:22;30.58;;;18.15;;
34876;SDS011;21086;44.780;17.194;2024-03-06T01:55:51;32.70;;;16.63;;
34876;SDS011;21086;44.780;17.194;2024-03-06T01:58:18;31.75;;;16.90;;
34876;SDS011;21086;44.780;17.194;2024-03-06T02:00:48;33.50;;;16.80;;
34876;SDS011;21086;44.780;17.194;2024-03-06T02:03:17;32.30;;;17.42;;
34876;SDS011;21086;44.780;17.194;2024-03-06T02:05:46;30.92;;;15.95;;
34876;SDS011;21086;44.780;17.194;2024-03-06T02:08:16;29.02;;;16.30;;
34876;SDS011;21086;44.780;17.194;2024-03-06T02:10:44;25.98;;;14.07;;
34876;SDS011;21086;44.780;17.194;2024-03-06T02:13:15;21.27;;;9.45;;
34876;SDS011;21086;44.780;17.194;2024-03-06T02:15:43;18.80;;;9.60;;
34876;SDS011;21086;44.780;17.194;2024-03-06T02:18:11;20.13;;;9.40;;
34876;SDS011;21086;44.780;17.194;2024-03-06T02:20:39;18.95;;;10.23;;
34876;SDS011;21086;44.780;17.194;2024-03-06T02:23:08;18.00;;;10.13;;
34876;SDS011;21086;44.780;17.194;2024-03-06T02:25:35;25.48;;;11.02;;
34876;SDS011;21086;44.780;17.194;2024-03-06T02:28:03;19.55;;;11.70;;
34876;SDS011;21086;44.780;17.194;2024-03-06T02:30:32;24.42;;;11.52;;
34876;SDS011;21086;44.780;17.194;2024-03-06T02:33:03;25.88;;;12.05;;
34876;SDS011;21086;44.780;17.194;2024-03-06T02:35:32;28.52;;;13.10;;
34876;SDS011;21086;44.780;17.194;2024-03-06T02:37:59;22.60;;;13.38;;
34876;SDS011;21086;44.780;17.194;2024-03-06T02:40:27;27.20;;;12.70;;
34876;SDS011;21086;44.780;17.194;2024-03-06T02:42:55;23.58;;;12.90;;
34876;SDS011;21086;44.780;17.194;2024-03-06T02:45:22;22.63;;;14.13;;
34876;SDS011;21086;44.780;17.194;2024-03-06T02:47:49;31.23;;;14.90;;
34876;SDS011;21086;44.780;17.194;2024-03-06T02:50:16;29.00;;;14.10;;
34876;SDS011;21086;44.780;17.194;2024-03-06T02:52:43;24.92;;;14.13;;
34876;SDS011;21086;44.780;17.194;2024-03-06T02:55:10;28.70;;;13.85;;
34876;SDS011;21086;44.780;17.194;2024-03-06T02:57:38;31.65;;;15.13;;
34876;SDS011;21086;44.780;17.194;2024-03-06T03:00:05;34.97;;;17.35;;
34876;SDS011;21086;44.780;17.194;2024-03-06T03:02:35;31.13;;;16.55;;
34876;SDS011;21086;44.780;17.194;2024-03-06T03:05:02;27.85;;;14.18;;
34876;SDS011;21086;44.780;17.194;2024-03-06T03:07:29;35.55;;;17.33;;
34876;SDS011;21086;44.780;17.194;2024-03-06T03:09:56;25.52;;;14.88;;
34876;SDS011;21086;44.780;17.194;2024-03-06T03:12:23;27.60;;;14.43;;
34876;SDS011;21086;44.780;17.194;2024-03-06T03:14:50;25.67;;;14.35;;
34876;SDS011;21086;44.780;17.194;2024-03-06T03:17:18;24.77;;;13.73;;
34876;SDS011;21086;44.780;17.194;2024-03-06T03:19:48;27.00;;;14.43;;
34876;SDS011;21086;44.780;17.194;2024-03-06T03:22:15;31.73;;;14.60;;
34876;SDS011;21086;44.780;17.194;2024-03-06T03:24:42;25.65;;;13.75;;
34876;SDS011;21086;44.780;17.194;2024-03-06T03:27:09;31.52;;;14.38;;
34876;SDS011;21086;44.780;17.194;2024-03-06T03:29:37;25.70;;;13.95;;
34876;SDS011;21086;44.780;17.194;2024-03-06T03:32:04;22.92;;;12.38;;
34876;SDS011;21086;44.780;17.194;2024-03-06T03:34:33;23.13;;;12.65;;
34876;SDS011;21086;44.780;17.194;2024-03-06T03:37:01;23.80;;;12.70;;
34876;SDS011;21086;44.780;17.194;2024-03-06T03:39:28;20.02;;;8.70;;
34876;SDS011;21086;44.780;17.194;2024-03-06T03:41:56;23.23;;;10.60;;
34876;SDS011;21086;44.780;17.194;2024-03-06T03:44:23;28.98;;;14.45;;
34876;SDS011;21086;44.780;17.194;2024-03-06T03:46:50;35.22;;;18.83;;
34876;SDS011;21086;44.780;17.194;2024-03-06T03:49:17;30.25;;;15.93;;
34876;SDS011;21086;44.780;17.194;2024-03-06T03:51:45;26.20;;;14.32;;
34876;SDS011;21086;44.780;17.194;2024-03-06T03:54:12;30.65;;;13.90;;
34876;SDS011;21086;44.780;17.194;2024-03-06T03:56:39;24.10;;;12.82;;
34876;SDS011;21086;44.780;17.194;2024-03-06T03:59:06;26.50;;;13.68;;
34876;SDS011;21086;44.780;17.194;2024-03-06T04:01:34;24.40;;;13.27;;
34876;SDS011;21086;44.780;17.194;2024-03-06T04:04:01;24.73;;;13.80;;
34876;SDS011;21086;44.780;17.194;2024-03-06T04:06:28;33.53;;;15.85;;
34876;SDS011;21086;44.780;17.194;2024-03-06T04:08:55;45.05;;;20.38;;
34876;SDS011;21086;44.780;17.194;2024-03-06T04:11:22;39.25;;;22.77;;
34876;SDS011;21086;44.780;17.194;2024-03-06T04:13:49;56.28;;;29.38;;
34876;SDS011;21086;44.780;17.194;2024-03-06T04:16:17;77.43;;;36.53;;
34876;SDS011;21086;44.780;17.194;2024-03-06T04:18:44;67.13;;;33.22;;
34876;SDS011;21086;44.780;17.194;2024-03-06T04:21:13;69.68;;;32.85;;
34876;SDS011;21086;44.780;17.194;2024-03-06T04:23:42;64.65;;;34.30;;
34876;SDS011;21086;44.780;17.194;2024-03-06T04:26:10;65.72;;;31.58;;
34876;SDS011;21086;44.780;17.194;2024-03-06T04:28:38;63.33;;;30.58;;
34876;SDS011;21086;44.780;17.194;2024-03-06T04:31:05;57.92;;;28.40;;
34876;SDS011;21086;44.780;17.194;2024-03-06T04:33:32;57.25;;;28.50;;
34876;SDS011;21086;44.780;17.194;2024-03-06T04:36:03;45.60;;;24.88;;
34876;SDS011;21086;44.780;17.194;2024-03-06T04:38:33;36.00;;;19.77;;
34876;SDS011;21086;44.780;17.194;2024-03-06T04:41:00;34.53;;;18.27;;
34876;SDS011;21086;44.780;17.194;2024-03-06T04:43:27;37.25;;;18.17;;
34876;SDS011;21086;44.780;17.194;2024-03-06T04:45:55;35.95;;;17.95;;
34876;SDS011;21086;44.780;17.194;2024-03-06T04:48:23;27.95;;;16.17;;
34876;SDS011;21086;44.780;17.194;2024-03-06T04:50:50;27.25;;;14.60;;
34876;SDS011;21086;44.780;17.194;2024-03-06T04:53:17;31.85;;;16.75;;
34876;SDS011;21086;44.780;17.194;2024-03-06T04:55:46;29.10;;;15.55;;
34876;SDS011;21086;44.780;17.194;2024-03-06T04:58:13;37.92;;;16.83;;
34876;SDS011;21086;44.780;17.194;2024-03-06T05:00:40;33.08;;;16.02;;
34876;SDS011;21086;44.780;17.194;2024-03-06T05:03:07;26.40;;;13.73;;
34876;SDS011;21086;44.780;17.194;2024-03-06T05:05:52;23.70;;;13.85;;
34876;SDS011;21086;44.780;17.194;2024-03-06T05:08:36;27.73;;;16.17;;
34876;SDS011;21086;44.780;17.194;2024-03-06T05:11:21;30.40;;;19.15;;
34876;SDS011;21086;44.780;17.194;2024-03-06T05:14:08;29.65;;;19.20;;
34876;SDS011;21086;44.780;17.194;2024-03-06T05:16:52;37.80;;;21.30;;
34876;SDS011;21086;44.780;17.194;2024-03-06T05:19:37;31.92;;;18.92;;
34876;SDS011;21086;44.780;17.194;2024-03-06T05:22:22;35.88;;;18.50;;
34876;SDS011;21086;44.780;17.194;2024-03-06T05:25:06;35.83;;;16.98;;
34876;SDS011;21086;44.780;17.194;2024-03-06T05:27:51;30.60;;;17.15;;
34876;SDS011;21086;44.780;17.194;2024-03-06T05:30:35;35.55;;;15.80;;
34876;SDS011;21086;44.780;17.194;2024-03-06T05:33:20;39.65;;;16.80;;
34876;SDS011;21086;44.780;17.194;2024-03-06T05:36:05;35.38;;;18.50;;
34876;SDS011;21086;44.780;17.194;2024-03-06T05:38:50;31.83;;;17.65;;
34876;SDS011;21086;44.780;17.194;2024-03-06T05:41:34;34.20;;;17.95;;
34876;SDS011;21086;44.780;17.194;2024-03-06T05:44:20;41.50;;;19.25;;
34876;SDS011;21086;44.780;17.194;2024-03-06T05:47:04;50.17;;;21.90;;
34876;SDS011;21086;44.780;17.194;2024-03-06T05:49:50;43.75;;;21.73;;
34876;SDS011;21086;44.780;17.194;2024-03-06T05:52:35;49.70;;;22.60;;
34876;SDS011;21086;44.780;17.194;2024-03-06T05:55:19;40.72;;;21.55;;
34876;SDS011;21086;44.780;17.194;2024-03-06T05:58:03;40.80;;;19.20;;
34876;SDS011;21086;44.780;17.194;2024-03-06T06:00:38;44.15;;;20.05;;
34876;SDS011;21086;44.780;17.194;2024-03-06T06:03:07;44.38;;;21.52;;
34876;SDS011;21086;44.780;17.194;2024-03-06T06:05:34;45.30;;;22.55;;
34876;SDS011;21086;44.780;17.194;2024-03-06T06:08:03;48.80;;;23.45;;
34876;SDS011;21086;44.780;17.194;2024-03-06T06:10:31;53.17;;;23.25;;
34876;SDS011;21086;44.780;17.194;2024-03-06T06:12:58;40.40;;;21.85;;
34876;SDS011;21086;44.780;17.194;2024-03-06T06:15:26;33.40;;;18.90;;
34876;SDS011;21086;44.780;17.194;2024-03-06T06:17:53;34.65;;;19.42;;
34876;SDS011;21086;44.780;17.194;2024-03-06T06:20:20;45.85;;;23.75;;
34876;SDS011;21086;44.780;17.194;2024-03-06T06:22:47;63.72;;;29.13;;
34876;SDS011;21086;44.780;17.194;2024-03-06T06:25:14;63.05;;;26.38;;
34876;SDS011;21086;44.780;17.194;2024-03-06T06:27:42;53.28;;;25.17;;
34876;SDS011;21086;44.780;17.194;2024-03-06T06:30:09;52.20;;;24.20;;
34876;SDS011;21086;44.780;17.194;2024-03-06T06:32:39;49.42;;;20.55;;
34876;SDS011;21086;44.780;17.194;2024-03-06T06:35:08;43.00;;;21.30;;
34876;SDS011;21086;44.780;17.194;2024-03-06T06:37:37;40.53;;;20.88;;
34876;SDS011;21086;44.780;17.194;2024-03-06T06:40:05;42.63;;;20.60;;
34876;SDS011;21086;44.780;17.194;2024-03-06T06:42:36;35.78;;;19.73;;
34876;SDS011;21086;44.780;17.194;2024-03-06T06:45:05;39.58;;;19.98;;
34876;SDS011;21086;44.780;17.194;2024-03-06T06:47:33;36.35;;;20.83;;
34876;SDS011;21086;44.780;17.194;2024-03-06T06:50:01;42.22;;;19.08;;
34876;SDS011;21086;44.780;17.194;2024-03-06T06:52:32;38.92;;;17.83;;
34876;SDS011;21086;44.780;17.194;2024-03-06T06:55:00;36.45;;;18.75;;
34876;SDS011;21086;44.780;17.194;2024-03-06T06:57:29;36.33;;;17.65;;
34876;SDS011;21086;44.780;17.194;2024-03-06T06:59:56;34.92;;;18.27;;
34876;SDS011;21086;44.780;17.194;2024-03-06T07:02:23;35.83;;;15.80;;
34876;SDS011;21086;44.780;17.194;2024-03-06T07:04:51;33.85;;;16.50;;
34876;SDS011;21086;44.780;17.194;2024-03-06T07:07:18;32.92;;;17.70;;
34876;SDS011;21086;44.780;17.194;2024-03-06T07:09:45;33.17;;;16.65;;
34876;SDS011;21086;44.780;17.194;2024-03-06T07:12:12;34.90;;;16.85;;
34876;SDS011;21086;44.780;17.194;2024-03-06T07:14:39;32.03;;;16.73;;
34876;SDS011;21086;44.780;17.194;2024-03-06T07:17:07;35.10;;;15.75;;
34876;SDS011;21086;44.780;17.194;2024-03-06T07:19:34;34.63;;;17.25;;
34876;SDS011;21086;44.780;17.194;2024-03-06T07:22:01;33.17;;;16.27;;
34876;SDS011;21086;44.780;17.194;2024-03-06T07:24:28;33.65;;;17.50;;
34876;SDS011;21086;44.780;17.194;2024-03-06T07:26:55;37.85;;;19.05;;
34876;SDS011;21086;44.780;17.194;2024-03-06T07:29:22;39.88;;;20.65;;
34876;SDS011;21086;44.780;17.194;2024-03-06T07:31:49;38.67;;;19.67;;
34876;SDS011;21086;44.780;17.194;2024-03-06T07:34:17;32.90;;;19.17;;
34876;SDS011;21086;44.780;17.194;2024-03-06T07:36:44;31.50;;;18.20;;
34876;SDS011;21086;44.780;17.194;2024-03-06T07:39:15;33.42;;;19.58;;
34876;SDS011;21086;44.780;17.194;2024-03-06T07:41:42;34.45;;;18.80;;
34876;SDS011;21086;44.780;17.194;2024-03-06T07:44:09;33.25;;;19.00;;
34876;SDS011;21086;44.780;17.194;2024-03-06T07:46:36;37.53;;;20.20;;
34876;SDS011;21086;44.780;17.194;2024-03-06T07:49:04;37.22;;;18.80;;
34876;SDS011;21086;44.780;17.194;2024-03-06T07:51:31;33.90;;;19.15;;
34876;SDS011;21086;44.780;17.194;2024-03-06T07:53:59;43.03;;;19.90;;
34876;SDS011;21086;44.780;17.194;2024-03-06T07:56:27;38.55;;;20.55;;
34876;SDS011;21086;44.780;17.194;2024-03-06T07:58:54;37.53;;;19.08;;
34876;SDS011;21086;44.780;17.194;2024-03-06T08:01:22;40.78;;;20.08;;
34876;SDS011;21086;44.780;17.194;2024-03-06T08:03:50;39.80;;;20.20;;
34876;SDS011;21086;44.780;17.194;2024-03-06T08:06:17;35.67;;;20.63;;
34876;SDS011;21086;44.780;17.194;2024-03-06T08:08:44;34.92;;;20.30;;
34876;SDS011;21086;44.780;17.194;2024-03-06T08:11:12;32.55;;;19.30;;
34876;SDS011;21086;44.780;17.194;2024-03-06T08:13:39;34.83;;;20.40;;
34876;SDS011;21086;44.780;17.194;2024-03-06T08:16:07;34.00;;;18.77;;
34876;SDS011;21086;44.780;17.194;2024-03-06T08:18:36;34.65;;;18.85;;
34876;SDS011;21086;44.780;17.194;2024-03-06T08:21:03;38.15;;;18.90;;
34876;SDS011;21086;44.780;17.194;2024-03-06T08:23:32;39.80;;;19.20;;
34876;SDS011;21086;44.780;17.194;2024-03-06T08:26:00;35.08;;;17.85;;
34876;SDS011;21086;44.780;17.194;2024-03-06T08:28:27;36.10;;;18.38;;
34876;SDS011;21086;44.780;17.194;2024-03-06T08:30:54;33.85;;;19.02;;
34876;SDS011;21086;44.780;17.194;2024-03-06T08:33:21;28.77;;;18.30;;
34876;SDS011;21086;44.780;17.194;2024-03-06T08:35:52;29.63;;;17.85;;
34876;SDS011;21086;44.780;17.194;2024-03-06T08:38:19;33.28;;;17.13;;
34876;SDS011;21086;44.780;17.194;2024-03-06T08:40:46;29.73;;;17.65;;
34876;SDS011;21086;44.780;17.194;2024-03-06T08:43:14;36.40;;;18.95;;
34876;SDS011;21086;44.780;17.194;2024-03-06T08:45:42;32.55;;;18.58;;
34876;SDS011;21086;44.780;17.194;2024-03-06T08:48:09;34.30;;;17.77;;
34876;SDS011;21086;44.780;17.194;2024-03-06T08:50:38;34.42;;;19.60;;
34876;SDS011;21086;44.780;17.194;2024-03-06T08:53:06;29.95;;;18.45;;
34876;SDS011;21086;44.780;17.194;2024-03-06T08:55:33;25.67;;;16.23;;
34876;SDS011;21086;44.780;17.194;2024-03-06T08:58:00;28.98;;;17.20;;
34876;SDS011;21086;44.780;17.194;2024-03-06T09:00:28;25.48;;;15.43;;
34876;SDS011;21086;44.780;17.194;2024-03-06T09:02:55;22.48;;;15.27;;
34876;SDS011;21086;44.780;17.194;2024-03-06T09:05:22;23.35;;;13.48;;
34876;SDS011;21086;44.780;17.194;2024-03-06T09:07:49;28.77;;;14.05;;
34876;SDS011;21086;44.780;17.194;2024-03-06T09:10:17;23.83;;;12.68;;
34876;SDS011;21086;44.780;17.194;2024-03-06T09:12:45;27.55;;;12.35;;
34876;SDS011;21086;44.780;17.194;2024-03-06T09:15:14;28.73;;;15.02;;
34876;SDS011;21086;44.780;17.194;2024-03-06T09:17:42;24.45;;;12.95;;
34876;SDS011;21086;44.780;17.194;2024-03-06T09:20:11;26.33;;;14.30;;
34876;SDS011;21086;44.780;17.194;2024-03-06T09:22:40;24.92;;;15.93;;
34876;SDS011;21086;44.780;17.194;2024-03-06T09:25:08;22.23;;;15.75;;
34876;SDS011;21086;44.780;17.194;2024-03-06T09:27:36;25.27;;;14.55;;
34876;SDS011;21086;44.780;17.194;2024-03-06T09:30:03;23.60;;;15.25;;
34876;SDS011;21086;44.780;17.194;2024-03-06T09:32:31;27.70;;;16.27;;
34876;SDS011;21086;44.780;17.194;2024-03-06T09:34:59;31.33;;;14.10;;
34876;SDS011;21086;44.780;17.194;2024-03-06T09:37:26;31.88;;;15.57;;
34876;SDS011;21086;44.780;17.194;2024-03-06T09:39:54;25.60;;;14.38;;
34876;SDS011;21086;44.780;17.194;2024-03-06T09:42:23;25.52;;;15.95;;
34876;SDS011;21086;44.780;17.194;2024-03-06T09:44:50;26.45;;;15.73;;
34876;SDS011;21086;44.780;17.194;2024-03-06T09:47:19;24.42;;;15.00;;
34876;SDS011;21086;44.780;17.194;2024-03-06T09:49:52;27.85;;;16.67;;
34876;SDS011;21086;44.780;17.194;2024-03-06T09:52:23;24.90;;;14.93;;
34876;SDS011;21086;44.780;17.194;2024-03-06T09:54:56;24.48;;;15.27;;
34876;SDS011;21086;44.780;17.194;2024-03-06T09:57:24;33.40;;;16.00;;
34876;SDS011;21086;44.780;17.194;2024-03-06T09:59:51;22.15;;;14.85;;
34876;SDS011;21086;44.780;17.194;2024-03-06T10:02:25;27.05;;;14.80;;
34876;SDS011;21086;44.780;17.194;2024-03-06T10:05:04;24.20;;;14.52;;
34876;SDS011;21086;44.780;17.194;2024-03-06T10:07:32;24.27;;;14.95;;
34876;SDS011;21086;44.780;17.194;2024-03-06T10:09:59;25.38;;;12.90;;
34876;SDS011;21086;44.780;17.194;2024-03-06T10:12:27;22.13;;;14.55;;
34876;SDS011;21086;44.780;17.194;2024-03-06T10:14:56;20.60;;;13.65;;
34876;SDS011;21086;44.780;17.194;2024-03-06T10:17:23;26.13;;;14.32;;
34876;SDS011;21086;44.780;17.194;2024-03-06T10:19:54;24.77;;;14.85;;
34876;SDS011;21086;44.780;17.194;2024-03-06T10:22:22;26.88;;;14.10;;
34876;SDS011;21086;44.780;17.194;2024-03-06T10:24:54;23.73;;;14.15;;
34876;SDS011;21086;44.780;17.194;2024-03-06T10:27:22;28.63;;;15.23;;
34876;SDS011;21086;44.780;17.194;2024-03-06T10:30:03;23.27;;;14.48;;
34876;SDS011;21086;44.780;17.194;2024-03-06T10:32:32;21.98;;;13.75;;
34876;SDS011;21086;44.780;17.194;2024-03-06T10:35:00;20.85;;;14.35;;
34876;SDS011;21086;44.780;17.194;2024-03-06T10:37:28;24.00;;;13.30;;
34876;SDS011;21086;44.780;17.194;2024-03-06T10:39:55;21.52;;;13.35;;
34876;SDS011;21086;44.780;17.194;2024-03-06T10:42:32;24.02;;;12.73;;
34876;SDS011;21086;44.780;17.194;2024-03-06T10:45:01;21.13;;;13.63;;
34876;SDS011;21086;44.780;17.194;2024-03-06T10:47:30;25.52;;;16.00;;
34876;SDS011;21086;44.780;17.194;2024-03-06T10:49:59;27.00;;;14.75;;
34876;SDS011;21086;44.780;17.194;2024-03-06T10:52:31;18.35;;;12.57;;
34876;SDS011;21086;44.780;17.194;2024-03-06T10:55:00;19.15;;;12.80;;
34876;SDS011;21086;44.780;17.194;2024-03-06T10:57:30;22.90;;;13.15;;
34876;SDS011;21086;44.780;17.194;2024-03-06T10:59:58;23.58;;;13.50;;
34876;SDS011;21086;44.780;17.194;2024-03-06T11:02:30;22.92;;;12.75;;
34876;SDS011;21086;44.780;17.194;2024-03-06T11:04:58;23.48;;;13.57;;
34876;SDS011;21086;44.780;17.194;2024-03-06T11:07:26;19.48;;;13.80;;
34876;SDS011;21086;44.780;17.194;2024-03-06T11:09:58;16.30;;;12.68;;
34876;SDS011;21086;44.780;17.194;2024-03-06T11:12:34;24.13;;;12.02;;
34876;SDS011;21086;44.780;17.194;2024-03-06T11:15:09;26.10;;;14.35;;
34876;SDS011;21086;44.780;17.194;2024-03-06T11:17:39;19.00;;;12.80;;
34876;SDS011;21086;44.780;17.194;2024-03-06T11:20:14;19.75;;;11.50;;
34876;SDS011;21086;44.780;17.194;2024-03-06T11:28:33;18.20;;;12.60;;
34876;SDS011;21086;44.780;17.194;2024-03-06T11:31:05;20.08;;;12.73;;
34876;SDS011;21086;44.780;17.194;2024-03-06T11:33:41;19.20;;;11.70;;
34876;SDS011;21086;44.780;17.194;2024-03-06T11:36:14;18.10;;;12.48;;
34876;SDS011;21086;44.780;17.194;2024-03-06T11:39:04;16.00;;;10.85;;
34876;SDS011;21086;44.780;17.194;2024-03-06T11:44:17;19.88;;;12.52;;
34876;SDS011;21086;44.780;17.194;2024-03-06T11:46:48;14.93;;;11.10;;
34876;SDS011;21086;44.780;17.194;2024-03-06T11:49:20;18.98;;;12.00;;
34876;SDS011;21086;44.780;17.194;2024-03-06T11:51:51;17.35;;;11.48;;
34876;SDS011;21086;44.780;17.194;2024-03-06T11:54:18;20.60;;;11.73;;
34876;SDS011;21086;44.780;17.194;2024-03-06T11:56:50;12.95;;;10.85;;
34876;SDS011;21086;44.780;17.194;2024-03-06T11:59:23;17.88;;;12.70;;
34876;SDS011;21086;44.780;17.194;2024-03-06T12:01:55;17.55;;;12.10;;
34876;SDS011;21086;44.780;17.194;2024-03-06T12:04:24;15.38;;;11.27;;
34876;SDS011;21086;44.780;17.194;2024-03-06T12:06:51;19.00;;;11.98;;
34876;SDS011;21086;44.780;17.194;2024-03-06T12:09:18;20.55;;;12.82;;
34876;SDS011;21086;44.780;17.194;2024-03-06T12:11:45;17.23;;;11.80;;
34876;SDS011;21086;44.780;17.194;2024-03-06T12:14:14;17.98;;;12.23;;
34876;SDS011;21086;44.780;17.194;2024-03-06T12:16:53;20.73;;;12.02;;
34876;SDS011;21086;44.780;17.194;2024-03-06T12:19:22;16.48;;;11.15;;
34876;SDS011;21086;44.780;17.194;2024-03-06T12:21:50;15.60;;;11.20;;
34876;SDS011;21086;44.780;17.194;2024-03-06T12:24:17;19.48;;;10.82;;
34876;SDS011;21086;44.780;17.194;2024-03-06T12:26:47;15.23;;;10.77;;
34876;SDS011;21086;44.780;17.194;2024-03-06T12:29:30;17.00;;;11.55;;
34876;SDS011;21086;44.780;17.194;2024-03-06T12:31:58;18.73;;;10.93;;
34876;SDS011;21086;44.780;17.194;2024-03-06T12:34:26;16.50;;;11.18;;
34876;SDS011;21086;44.780;17.194;2024-03-06T12:36:54;15.02;;;10.60;;
34876;SDS011;21086;44.780;17.194;2024-03-06T12:39:21;17.08;;;10.75;;
34876;SDS011;21086;44.780;17.194;2024-03-06T12:41:50;14.68;;;10.73;;
34876;SDS011;21086;44.780;17.194;2024-03-06T12:44:21;18.75;;;11.45;;
34876;SDS011;21086;44.780;17.194;2024-03-06T12:46:48;15.77;;;10.73;;
34876;SDS011;21086;44.780;17.194;2024-03-06T12:49:16;17.85;;;11.13;;
34876;SDS011;21086;44.780;17.194;2024-03-06T12:51:44;14.40;;;10.02;;
34876;SDS011;21086;44.780;17.194;2024-03-06T12:54:12;18.42;;;10.98;;
34876;SDS011;21086;44.780;17.194;2024-03-06T12:56:39;14.30;;;10.75;;
34876;SDS011;21086;44.780;17.194;2024-03-06T12:59:08;16.55;;;10.25;;
34876;SDS011;21086;44.780;17.194;2024-03-06T13:01:36;15.23;;;10.30;;
34876;SDS011;21086;44.780;17.194;2024-03-06T13:04:03;22.23;;;11.50;;
34876;SDS011;21086;44.780;17.194;2024-03-06T13:06:34;14.93;;;10.57;;
34876;SDS011;21086;44.780;17.194;2024-03-06T13:09:01;14.80;;;10.55;;
34876;SDS011;21086;44.780;17.194;2024-03-06T13:11:28;18.73;;;10.07;;
34876;SDS011;21086;44.780;17.194;2024-03-06T13:13:55;14.60;;;9.68;;
34876;SDS011;21086;44.780;17.194;2024-03-06T13:16:22;17.67;;;10.82;;
34876;SDS011;21086;44.780;17.194;2024-03-06T13:18:49;12.98;;;10.48;;
34876;SDS011;21086;44.780;17.194;2024-03-06T13:21:19;14.20;;;10.40;;
34876;SDS011;21086;44.780;17.194;2024-03-06T13:23:46;14.43;;;10.02;;
34876;SDS011;21086;44.780;17.194;2024-03-06T13:26:14;13.60;;;9.57;;
34876;SDS011;21086;44.780;17.194;2024-03-06T13:28:41;16.33;;;9.05;;
34876;SDS011;21086;44.780;17.194;2024-03-06T13:31:08;13.85;;;9.30;;
34876;SDS011;21086;44.780;17.194;2024-03-06T13:33:35;17.33;;;9.82;;
34876;SDS011;21086;44.780;17.194;2024-03-06T13:36:03;18.02;;;11.27;;
34876;SDS011;21086;44.780;17.194;2024-03-06T13:38:31;15.30;;;9.85;;
34876;SDS011;21086;44.780;17.194;2024-03-06T13:40:58;15.18;;;10.27;;
34876;SDS011;21086;44.780;17.194;2024-03-06T13:43:28;14.02;;;9.18;;
34876;SDS011;21086;44.780;17.194;2024-03-06T13:45:55;15.45;;;9.43;;
34876;SDS011;21086;44.780;17.194;2024-03-06T13:48:23;16.42;;;8.73;;
34876;SDS011;21086;44.780;17.194;2024-03-06T13:50:50;13.90;;;9.63;;
34876;SDS011;21086;44.780;17.194;2024-03-06T13:53:17;15.65;;;9.98;;
34876;SDS011;21086;44.780;17.194;2024-03-06T13:55:44;20.38;;;10.82;;
34876;SDS011;21086;44.780;17.194;2024-03-06T13:58:11;17.45;;;10.77;;
34876;SDS011;21086;44.780;17.194;2024-03-06T14:00:38;19.77;;;11.57;;
34876;SDS011;21086;44.780;17.194;2024-03-06T14:03:05;15.50;;;11.00;;
34876;SDS011;21086;44.780;17.194;2024-03-06T14:05:32;17.33;;;11.43;;
34876;SDS011;21086;44.780;17.194;2024-03-06T14:07:59;16.00;;;10.02;;
34876;SDS011;21086;44.780;17.194;2024-03-06T14:10:26;14.50;;;9.90;;
34876;SDS011;21086;44.780;17.194;2024-03-06T14:12:53;22.40;;;12.50;;
34876;SDS011;21086;44.780;17.194;2024-03-06T14:15:22;18.08;;;11.30;;
34876;SDS011;21086;44.780;17.194;2024-03-06T14:17:52;22.73;;;13.43;;
34876;SDS011;21086;44.780;17.194;2024-03-06T14:20:21;20.15;;;11.98;;
34876;SDS011;21086;44.780;17.194;2024-03-06T14:22:48;18.95;;;12.77;;
34876;SDS011;21086;44.780;17.194;2024-03-06T14:25:16;20.63;;;11.70;;
34876;SDS011;21086;44.780;17.194;2024-03-06T14:27:44;15.05;;;10.27;;